Time;durP1;ratioP1;P1;durP2;ratioP2;P2;SDS_P1;SDS_P2;PMS_P1;PMS_P2;Temp;Humidity;BMP_temperature;BMP_pressure;BME280_temperature;BME280_humidity;BME280_pressure;Samples;Min_cycle;Max_cycle;Signal;HPM_P1;HPM_P2
2022/11/26 00:01:09;;;;;;;;;13.75;13.75;;;;;;;;5107533;27;52585;-42
2022/11/26 00:03:55;;;;;;;;;12.75;12.75;;;;;;;;5091727;27;52290;-46
2022/11/26 00:06:41;;;;;;;;;15.00;15.00;;;;;;;;5091796;27;51113;-44
2022/11/26 00:09:25;;;;;;;;;24.25;15.00;;;;;;;;5107907;27;51156;-43
2022/11/26 00:12:17;;;;;;;;;21.50;16.75;;;;;;;;5106283;27;51137;-45
2022/11/26 00:15:15;;;;;;;;;14.25;14.00;;;;;;;;5110481;27;51165;-45
2022/11/26 00:17:59;;;;;;;;;11.50;10.00;;;;;;;;5122325;27;51118;-45
2022/11/26 00:20:44;;;;;;;;;17.75;15.50;;;;;;;;5121666;27;51062;-43
2022/11/26 00:23:29;;;;;;;;;19.00;14.25;;;;;;;;5122312;27;51116;-43
2022/11/26 00:26:18;;;;;;;;;16.25;15.50;;;;;;;;5121798;27;51584;-44
2022/11/26 00:29:02;;;;;;;;;20.00;18.25;;;;;;;;5121891;27;51128;-45
2022/11/26 00:31:46;;;;;;;;;17.25;15.75;;;;;;;;5121830;27;51584;-43
2022/11/26 00:34:31;;;;;;;;;14.50;14.50;;;;;;;;5121675;27;51183;-44
2022/11/26 00:37:25;;;;;;;;;15.25;12.75;;;;;;;;5122317;27;51099;-43
2022/11/26 00:40:23;;;;;;;;;18.75;16.25;;;;;;;;5105997;27;51168;-46
2022/11/26 00:43:10;;;;;;;;;22.00;16.00;;;;;;;;5113775;27;51140;-44
2022/11/26 00:45:55;;;;;;;;;20.00;16.00;;;;;;;;5115969;27;51155;-44
2022/11/26 00:48:39;;;;;;;;;16.00;12.50;;;;;;;;5101083;27;51008;-44
2022/11/26 00:51:27;;;;;;;;;15.00;13.00;;;;;;;;5118850;27;51443;-47
2022/11/26 00:54:15;;;;;;;;;19.50;14.00;;;;;;;;5121705;27;51227;-46
2022/11/26 00:57:00;;;;;;;;;14.75;12.50;;;;;;;;5121127;27;51191;-42
2022/11/26 00:59:44;;;;;;;;;21.25;18.25;;;;;;;;5117325;27;51144;-44
2022/11/26 01:02:29;;;;;;;;;16.25;14.00;;;;;;;;5106876;27;51187;-43
2022/11/26 01:05:14;;;;;;;;;16.75;15.50;;;;;;;;5105451;27;51378;-43
2022/11/26 01:08:01;;;;;;;;;18.00;15.50;;;;;;;;5105950;27;51200;-44
2022/11/26 01:10:45;;;;;;;;;15.50;14.50;;;;;;;;5100724;27;51073;-45
2022/11/26 01:13:30;;;;;;;;;15.00;14.00;;;;;;;;5116310;27;50960;-43
2022/11/26 01:16:19;;;;;;;;;15.50;12.75;;;;;;;;5120963;27;51547;-45
2022/11/26 01:19:04;;;;;;;;;18.75;15.00;;;;;;;;5121082;27;51159;-44
2022/11/26 01:21:49;;;;;;;;;15.25;14.00;;;;;;;;5121199;27;51483;-46
2022/11/26 01:24:33;;;;;;;;;14.00;14.00;;;;;;;;5120836;27;51179;-43
2022/11/26 01:27:21;;;;;;;;;11.25;8.50;;;;;;;;5121500;27;51181;-43
2022/11/26 01:30:11;;;;;;;;;17.75;15.25;;;;;;;;5120953;27;51284;-45
2022/11/26 01:32:55;;;;;;;;;19.25;15.75;;;;;;;;5120987;27;51164;-45
2022/11/26 01:35:40;;;;;;;;;15.50;14.00;;;;;;;;5120554;27;51159;-48
2022/11/26 01:38:24;;;;;;;;;19.75;16.75;;;;;;;;5120878;27;51124;-42
2022/11/26 01:41:35;;;;;;;;;15.25;14.00;;;;;;;;5120851;27;51093;-46
2022/11/26 01:44:20;;;;;;;;;12.50;12.50;;;;;;;;5091915;27;51240;-46
2022/11/26 01:47:22;;;;;;;;;14.50;14.25;;;;;;;;5120786;27;51484;-43
2022/11/26 01:50:25;;;;;;;;;16.00;15.75;;;;;;;;5120512;27;51081;-46
2022/11/26 01:53:12;;;;;;;;;17.50;15.50;;;;;;;;5120994;27;51071;-43
2022/11/26 01:56:00;;;;;;;;;19.50;16.75;;;;;;;;5120675;27;51153;-44
2022/11/26 01:58:50;;;;;;;;;15.25;14.00;;;;;;;;5120656;27;51008;-47
2022/11/26 02:01:34;;;;;;;;;17.00;14.00;;;;;;;;5120327;27;51168;-45
2022/11/26 02:04:20;;;;;;;;;15.75;13.75;;;;;;;;5121212;27;51066;-43
2022/11/26 02:07:05;;;;;;;;;19.25;15.25;;;;;;;;5120710;27;51136;-44
2022/11/26 02:09:49;;;;;;;;;15.50;14.00;;;;;;;;5120964;27;51064;-47
2022/11/26 02:12:34;;;;;;;;;16.75;16.25;;;;;;;;5107896;27;51093;-44
2022/11/26 02:15:21;;;;;;;;;18.75;15.50;;;;;;;;5117566;27;51196;-45
2022/11/26 02:18:07;;;;;;;;;17.75;15.50;;;;;;;;5123846;27;51031;-44
2022/11/26 02:20:51;;;;;;;;;14.50;12.75;;;;;;;;5124306;27;51447;-49
2022/11/26 02:23:45;;;;;;;;;16.25;16.00;;;;;;;;5121489;27;51399;-41
2022/11/26 02:26:36;;;;;;;;;14.50;14.50;;;;;;;;5124368;27;51081;-43
2022/11/26 02:29:43;;;;;;;;;15.25;13.50;;;;;;;;5124507;27;51178;-47
2022/11/26 02:32:32;;;;;;;;;14.50;14.25;;;;;;;;5124292;27;51045;-43
2022/11/26 02:35:39;;;;;;;;;17.50;15.00;;;;;;;;5124254;27;51164;-45
2022/11/26 02:38:25;;;;;;;;;14.75;13.50;;;;;;;;5123816;27;51079;-46
2022/11/26 02:41:09;;;;;;;;;16.50;14.25;;;;;;;;5123995;27;51172;-45
2022/11/26 02:43:54;;;;;;;;;19.00;16.00;;;;;;;;5124528;27;51167;-45
2022/11/26 02:46:39;;;;;;;;;16.25;11.75;;;;;;;;5123568;27;51110;-46
2022/11/26 02:49:25;;;;;;;;;16.75;14.00;;;;;;;;5123765;27;51096;-43
2022/11/26 02:52:10;;;;;;;;;17.00;13.00;;;;;;;;5123533;27;51054;-46
2022/11/26 02:54:56;;;;;;;;;19.25;16.00;;;;;;;;5120233;27;51097;-48
2022/11/26 02:57:46;;;;;;;;;21.25;19.00;;;;;;;;5102957;27;51165;-45
2022/11/26 03:00:36;;;;;;;;;18.25;15.75;;;;;;;;5119734;27;51175;-44
2022/11/26 03:03:22;;;;;;;;;23.25;16.00;;;;;;;;5123732;27;51480;-44
2022/11/26 03:06:08;;;;;;;;;22.25;17.50;;;;;;;;5123300;27;51007;-46
2022/11/26 03:08:53;;;;;;;;;14.50;14.50;;;;;;;;5123909;27;51159;-46
2022/11/26 03:11:38;;;;;;;;;20.25;15.25;;;;;;;;5123372;27;51555;-47
2022/11/26 03:14:22;;;;;;;;;15.75;15.00;;;;;;;;5123329;27;51200;-44
2022/11/26 03:17:06;;;;;;;;;15.75;13.50;;;;;;;;5121028;27;51275;-42
2022/11/26 03:19:51;;;;;;;;;19.75;16.75;;;;;;;;5123481;27;51001;-44
2022/11/26 03:22:35;;;;;;;;;14.50;14.00;;;;;;;;5122940;27;51478;-44
2022/11/26 03:25:19;;;;;;;;;20.75;15.75;;;;;;;;5089150;27;51101;-44
2022/11/26 03:28:04;;;;;;;;;18.50;16.75;;;;;;;;5101907;27;51525;-46
2022/11/26 03:30:49;;;;;;;;;18.75;14.25;;;;;;;;5120735;27;51133;-46
2022/11/26 03:33:32;;;;;;;;;16.25;15.75;;;;;;;;5123292;27;51124;-44
2022/11/26 03:36:17;;;;;;;;;19.50;16.50;;;;;;;;5122551;27;51064;-46
2022/11/26 03:39:02;;;;;;;;;20.00;18.50;;;;;;;;5122655;27;51114;-45
2022/11/26 03:41:46;;;;;;;;;18.00;15.75;;;;;;;;5122393;27;51223;-43
2022/11/26 03:44:31;;;;;;;;;21.75;17.25;;;;;;;;5123155;27;51075;-48
2022/11/26 03:47:15;;;;;;;;;22.25;17.50;;;;;;;;5122395;27;50991;-46
2022/11/26 03:50:00;;;;;;;;;19.50;17.75;;;;;;;;5122706;27;50998;-44
2022/11/26 03:52:44;;;;;;;;;14.25;13.00;;;;;;;;5122713;27;52731;-44
2022/11/26 03:55:28;;;;;;;;;21.75;18.25;;;;;;;;5122522;27;51247;-46
2022/11/26 03:58:13;;;;;;;;;17.50;16.75;;;;;;;;5122917;27;51090;-43
2022/11/26 04:00:57;;;;;;;;;18.25;15.25;;;;;;;;5122513;27;51418;-44
2022/11/26 04:03:41;;;;;;;;;22.25;15.25;;;;;;;;5122170;27;51164;-47
2022/11/26 04:06:26;;;;;;;;;16.25;15.75;;;;;;;;5122217;27;51152;-43
2022/11/26 04:09:10;;;;;;;;;20.25;17.25;;;;;;;;5122641;27;51208;-44
2022/11/26 04:11:55;;;;;;;;;10.25;10.25;;;;;;;;5122041;27;51341;-44
2022/11/26 04:14:39;;;;;;;;;18.00;17.00;;;;;;;;5122203;27;51214;-45
2022/11/26 04:17:24;;;;;;;;;13.00;12.25;;;;;;;;5122280;27;51499;-45
2022/11/26 04:20:08;;;;;;;;;23.25;20.25;;;;;;;;5121667;27;51150;-43
2022/11/26 04:22:52;;;;;;;;;19.00;16.75;;;;;;;;5104166;27;51157;-46
2022/11/26 04:25:37;;;;;;;;;25.25;16.50;;;;;;;;5101246;27;51046;-47
2022/11/26 04:28:21;;;;;;;;;22.00;16.00;;;;;;;;5101264;27;51123;-47
2022/11/26 04:31:06;;;;;;;;;17.00;15.00;;;;;;;;5119748;27;51156;-45
2022/11/26 04:33:50;;;;;;;;;21.50;17.50;;;;;;;;5122054;27;51170;-44
2022/11/26 04:36:35;;;;;;;;;23.00;18.25;;;;;;;;5121732;27;51050;-46
2022/11/26 04:39:19;;;;;;;;;20.75;18.25;;;;;;;;5120526;27;51078;-45
2022/11/26 04:42:03;;;;;;;;;20.00;17.25;;;;;;;;5121815;27;51047;-46
2022/11/26 04:44:48;;;;;;;;;17.75;14.00;;;;;;;;5121549;27;51043;-46
2022/11/26 04:47:32;;;;;;;;;16.75;14.25;;;;;;;;5122052;27;51147;-44
2022/11/26 04:50:17;;;;;;;;;23.00;18.75;;;;;;;;5121340;27;51126;-46
2022/11/26 04:53:01;;;;;;;;;21.50;16.75;;;;;;;;5121711;27;51515;-44
2022/11/26 04:55:46;;;;;;;;;22.00;16.75;;;;;;;;5121169;27;51133;-45
2022/11/26 04:58:31;;;;;;;;;19.25;17.75;;;;;;;;5118302;27;51176;-42
2022/11/26 05:01:15;;;;;;;;;15.75;15.25;;;;;;;;5100827;27;51065;-46
2022/11/26 05:04:00;;;;;;;;;18.00;16.75;;;;;;;;5100845;27;51116;-47
2022/11/26 05:06:45;;;;;;;;;19.00;15.75;;;;;;;;5100808;27;51021;-44
2022/11/26 05:09:29;;;;;;;;;23.50;19.00;;;;;;;;5118494;27;51283;-44
2022/11/26 05:12:13;;;;;;;;;22.25;17.50;;;;;;;;5121502;27;51183;-45
2022/11/26 05:14:58;;;;;;;;;44.50;33.25;;;;;;;;5121125;27;51157;-45
2022/11/26 05:17:42;;;;;;;;;36.00;29.75;;;;;;;;5121197;27;51358;-45
2022/11/26 05:20:27;;;;;;;;;22.25;20.00;;;;;;;;5120679;27;51098;-44
2022/11/26 05:23:11;;;;;;;;;50.00;36.75;;;;;;;;5121515;27;51080;-44
2022/11/26 05:25:56;;;;;;;;;79.75;60.75;;;;;;;;5121117;27;51435;-43
2022/11/26 05:28:40;;;;;;;;;46.50;35.50;;;;;;;;5120756;27;51276;-42
2022/11/26 05:31:25;;;;;;;;;61.75;49.25;;;;;;;;5120994;27;51223;-45
2022/11/26 05:34:09;;;;;;;;;64.50;51.25;;;;;;;;5120680;27;51090;-42
2022/11/26 05:36:53;;;;;;;;;69.00;50.00;;;;;;;;5121086;27;51261;-43
2022/11/26 05:39:38;;;;;;;;;49.75;37.00;;;;;;;;5120300;27;51373;-46
2022/11/26 05:42:22;;;;;;;;;71.25;53.00;;;;;;;;5120918;27;51140;-44
2022/11/26 05:45:06;;;;;;;;;36.50;30.75;;;;;;;;5120920;27;51175;-45
2022/11/26 05:47:51;;;;;;;;;38.25;31.75;;;;;;;;5120954;27;51146;-45
2022/11/26 05:50:35;;;;;;;;;39.75;30.50;;;;;;;;5122069;27;51547;-45
2022/11/26 05:53:19;;;;;;;;;46.25;32.75;;;;;;;;5125000;27;51054;-45
2022/11/26 05:56:04;;;;;;;;;37.50;32.00;;;;;;;;5124957;27;51758;-44
2022/11/26 05:58:48;;;;;;;;;34.75;31.00;;;;;;;;5124529;27;51120;-45
2022/11/26 06:01:33;;;;;;;;;44.50;33.50;;;;;;;;5125222;27;50964;-42
2022/11/26 06:04:17;;;;;;;;;46.00;33.00;;;;;;;;5124826;27;51089;-45
2022/11/26 06:07:02;;;;;;;;;44.75;35.00;;;;;;;;5124712;27;51043;-45
2022/11/26 06:09:46;;;;;;;;;38.00;32.25;;;;;;;;5124673;27;51118;-48
2022/11/26 06:12:31;;;;;;;;;40.00;34.00;;;;;;;;5125235;27;50985;-45
2022/11/26 06:15:15;;;;;;;;;42.25;31.25;;;;;;;;5124385;27;51030;-45
2022/11/26 06:17:59;;;;;;;;;52.00;40.25;;;;;;;;5124336;27;51107;-46
2022/11/26 06:20:44;;;;;;;;;57.00;44.00;;;;;;;;5124514;27;51203;-44
2022/11/26 06:23:29;;;;;;;;;53.75;41.00;;;;;;;;5124184;27;51116;-46
2022/11/26 06:26:12;;;;;;;;;52.00;42.00;;;;;;;;5106804;27;51041;-44
2022/11/26 06:28:57;;;;;;;;;51.25;39.50;;;;;;;;5103513;27;51042;-43
2022/11/26 06:31:41;;;;;;;;;48.00;38.00;;;;;;;;5118984;27;51049;-45
2022/11/26 06:34:26;;;;;;;;;49.75;39.75;;;;;;;;5123800;27;51092;-44
2022/11/26 06:37:10;;;;;;;;;47.75;39.25;;;;;;;;5124409;27;51076;-44
2022/11/26 06:39:55;;;;;;;;;49.50;41.00;;;;;;;;5124080;27;51439;-47
2022/11/26 06:42:39;;;;;;;;;45.00;36.75;;;;;;;;5124042;27;51165;-45
2022/11/26 06:45:23;;;;;;;;;49.50;40.00;;;;;;;;5124193;27;51650;-44
2022/11/26 06:48:08;;;;;;;;;47.75;38.25;;;;;;;;5123808;27;51195;-42
2022/11/26 06:50:52;;;;;;;;;48.50;38.50;;;;;;;;5124256;27;50999;-45
2022/11/26 06:53:37;;;;;;;;;47.00;35.75;;;;;;;;5123830;27;51144;-46
2022/11/26 06:56:21;;;;;;;;;48.00;39.00;;;;;;;;5123991;27;51180;-44
2022/11/26 06:59:06;;;;;;;;;41.75;35.25;;;;;;;;5123599;27;51092;-47
2022/11/26 07:01:50;;;;;;;;;47.00;34.75;;;;;;;;5123141;27;51073;-47
2022/11/26 07:04:34;;;;;;;;;44.50;36.25;;;;;;;;5123325;27;51338;-46
2022/11/26 07:07:19;;;;;;;;;47.75;38.00;;;;;;;;5123520;27;51140;-43
2022/11/26 07:10:03;;;;;;;;;39.75;33.75;;;;;;;;5123850;27;51146;-45
2022/11/26 07:12:48;;;;;;;;;48.00;38.75;;;;;;;;5123283;27;51017;-46
2022/11/26 07:15:32;;;;;;;;;48.00;38.25;;;;;;;;5123428;27;51092;-46
2022/11/26 07:18:16;;;;;;;;;47.50;39.00;;;;;;;;5123336;27;51036;-45
2022/11/26 07:21:05;;;;;;;;;49.25;38.75;;;;;;;;5123200;27;51053;-43
2022/11/26 07:23:49;;;;;;;;;45.50;34.00;;;;;;;;5122855;27;51100;-47
2022/11/26 07:26:34;;;;;;;;;41.50;33.00;;;;;;;;5123340;27;51038;-47
2022/11/26 07:29:18;;;;;;;;;45.50;36.25;;;;;;;;5122688;27;51563;-46
2022/11/26 07:32:02;;;;;;;;;41.75;33.00;;;;;;;;5122422;27;51007;-43
2022/11/26 07:34:47;;;;;;;;;44.75;36.75;;;;;;;;5102796;27;51144;-45
2022/11/26 07:37:32;;;;;;;;;43.75;33.00;;;;;;;;5106021;27;51362;-43
2022/11/26 07:40:16;;;;;;;;;41.50;32.25;;;;;;;;5121085;27;51374;-45
2022/11/26 07:43:01;;;;;;;;;41.50;33.25;;;;;;;;5120856;27;51167;-45
2022/11/26 07:45:45;;;;;;;;;35.50;30.25;;;;;;;;5122592;27;51192;-45
2022/11/26 07:48:30;;;;;;;;;32.75;30.00;;;;;;;;5122688;27;51099;-45
2022/11/26 07:51:22;;;;;;;;;34.00;29.00;;;;;;;;5122987;27;51105;-44
2022/11/26 07:54:07;;;;;;;;;34.50;28.00;;;;;;;;5119686;27;51362;-44
2022/11/26 07:56:51;;;;;;;;;34.00;30.75;;;;;;;;5119536;27;51162;-46
2022/11/26 07:59:35;;;;;;;;;32.00;28.25;;;;;;;;5122277;27;51879;-44
2022/11/26 08:02:21;;;;;;;;;30.50;29.25;;;;;;;;5101398;27;51393;-44
2022/11/26 08:05:06;;;;;;;;;33.00;29.50;;;;;;;;5100834;27;51069;-50
2022/11/26 08:07:51;;;;;;;;;38.25;31.00;;;;;;;;5096399;27;51000;-46
2022/11/26 08:10:35;;;;;;;;;33.75;29.75;;;;;;;;5087258;27;51532;-47
2022/11/26 08:13:19;;;;;;;;;33.75;27.25;;;;;;;;5103230;27;51160;-45
2022/11/26 08:16:04;;;;;;;;;31.75;26.25;;;;;;;;5120878;27;51125;-47
2022/11/26 08:18:52;;;;;;;;;28.50;27.50;;;;;;;;5121502;27;51031;-42
2022/11/26 08:21:37;;;;;;;;;37.75;28.25;;;;;;;;5121735;27;51530;-45
2022/11/26 08:24:22;;;;;;;;;32.50;29.25;;;;;;;;5122181;27;51568;-43
2022/11/26 08:27:06;;;;;;;;;33.75;29.25;;;;;;;;5110887;27;51093;-44
2022/11/26 08:29:51;;;;;;;;;30.75;27.00;;;;;;;;5112634;27;51048;-44
2022/11/26 08:32:36;;;;;;;;;28.00;25.00;;;;;;;;5121480;27;51353;-43
2022/11/26 08:35:20;;;;;;;;;30.00;27.00;;;;;;;;5110194;27;51581;-48
2022/11/26 08:38:04;;;;;;;;;28.75;25.00;;;;;;;;5101217;27;51151;-46
2022/11/26 08:40:49;;;;;;;;;27.75;25.50;;;;;;;;5119048;27;51059;-45
2022/11/26 08:43:34;;;;;;;;;33.25;29.00;;;;;;;;5121900;27;51510;-45
2022/11/26 08:46:20;;;;;;;;;32.50;28.00;;;;;;;;5105188;27;51134;-45
2022/11/26 08:49:04;;;;;;;;;29.25;27.75;;;;;;;;5100463;27;51463;-45
2022/11/26 08:51:48;;;;;;;;;30.25;27.50;;;;;;;;5106719;27;52220;-46
2022/11/26 08:54:33;;;;;;;;;29.50;27.50;;;;;;;;5100536;27;51136;-46
2022/11/26 08:57:18;;;;;;;;;25.50;24.50;;;;;;;;5100687;27;51110;-44
2022/11/26 09:00:04;;;;;;;;;27.25;24.25;;;;;;;;5120864;27;51095;-45
2022/11/26 09:02:48;;;;;;;;;22.50;22.50;;;;;;;;5121162;27;50979;-46
2022/11/26 09:05:32;;;;;;;;;24.75;23.25;;;;;;;;5121897;27;51127;-42
2022/11/26 09:08:17;;;;;;;;;20.75;18.50;;;;;;;;5121271;27;51150;-46
2022/11/26 09:11:02;;;;;;;;;23.00;18.50;;;;;;;;5121106;27;51170;-44
2022/11/26 09:13:46;;;;;;;;;20.50;19.75;;;;;;;;5104920;27;51586;-44
2022/11/26 09:16:32;;;;;;;;;19.00;17.00;;;;;;;;5086825;27;51145;-43
2022/11/26 09:19:16;;;;;;;;;24.75;17.00;;;;;;;;5109982;27;51339;-45
2022/11/26 09:22:01;;;;;;;;;19.00;17.75;;;;;;;;5119143;27;51495;-45
2022/11/26 09:24:45;;;;;;;;;19.50;18.25;;;;;;;;5115869;27;51076;-45
2022/11/26 09:27:30;;;;;;;;;23.00;18.50;;;;;;;;5120418;27;51037;-44
2022/11/26 09:30:15;;;;;;;;;19.75;16.00;;;;;;;;5120351;27;51067;-44
2022/11/26 09:32:59;;;;;;;;;22.75;20.75;;;;;;;;5120393;27;51495;-45
2022/11/26 09:35:44;;;;;;;;;18.50;16.00;;;;;;;;5101696;27;51128;-45
2022/11/26 09:38:28;;;;;;;;;18.50;16.75;;;;;;;;5117327;27;51192;-44
2022/11/26 09:41:30;;;;;;;;;19.00;18.25;;;;;;;;5120341;27;51181;-44
2022/11/26 09:44:14;;;;;;;;;19.25;17.50;;;;;;;;5120363;27;51113;-45
2022/11/26 09:47:08;;;;;;;;;18.50;18.50;;;;;;;;5121343;27;51141;-46
2022/11/26 09:49:56;;;;;;;;;22.00;20.00;;;;;;;;5099908;27;51581;-46
2022/11/26 09:52:52;;;;;;;;;20.75;18.50;;;;;;;;5114671;27;51235;-44
2022/11/26 09:55:40;;;;;;;;;22.25;20.00;;;;;;;;5118818;27;51295;-46
2022/11/26 09:58:33;;;;;;;;;19.25;18.50;;;;;;;;5104499;27;51438;-46
2022/11/26 10:01:19;;;;;;;;;14.25;13.00;;;;;;;;5119788;27;51561;-43
2022/11/26 10:04:08;;;;;;;;;17.75;16.75;;;;;;;;5120474;27;51589;-43
2022/11/26 10:06:58;;;;;;;;;17.75;15.50;;;;;;;;5119496;27;51214;-45
2022/11/26 10:09:43;;;;;;;;;20.25;18.50;;;;;;;;5120148;27;51318;-42
2022/11/26 10:12:33;;;;;;;;;20.00;16.00;;;;;;;;5119793;27;51277;-46
2022/11/26 10:15:19;;;;;;;;;16.75;16.75;;;;;;;;5120063;27;51256;-47
2022/11/26 10:18:14;;;;;;;;;21.00;18.00;;;;;;;;5120199;27;51139;-45
2022/11/26 10:21:01;;;;;;;;;19.25;17.25;;;;;;;;5120041;27;51036;-47
2022/11/26 10:23:48;;;;;;;;;16.00;14.25;;;;;;;;5119684;27;51435;-43
2022/11/26 10:26:35;;;;;;;;;20.75;16.75;;;;;;;;5120181;27;51089;-43
2022/11/26 10:29:27;;;;;;;;;15.50;15.50;;;;;;;;5118854;27;51550;-45
2022/11/26 10:32:20;;;;;;;;;19.00;14.75;;;;;;;;5119544;27;51166;-43
2022/11/26 10:35:04;;;;;;;;;16.00;14.00;;;;;;;;5120029;27;51247;-46
2022/11/26 10:37:50;;;;;;;;;17.00;15.50;;;;;;;;5121835;27;51466;-45
2022/11/26 10:40:34;;;;;;;;;20.50;15.00;;;;;;;;5123992;27;51306;-43
2022/11/26 10:43:20;;;;;;;;;17.50;16.75;;;;;;;;5122989;27;51091;-42
2022/11/26 10:46:04;;;;;;;;;14.00;14.00;;;;;;;;5123703;27;51137;-45
2022/11/26 10:48:49;;;;;;;;;18.25;16.50;;;;;;;;5122846;27;51632;-45
2022/11/26 10:51:36;;;;;;;;;16.50;16.25;;;;;;;;5124510;27;51243;-44
2022/11/26 10:54:26;;;;;;;;;18.75;14.50;;;;;;;;5123213;27;51152;-42
2022/11/26 10:57:16;;;;;;;;;18.50;15.00;;;;;;;;5123763;27;51136;-42
2022/11/26 11:00:01;;;;;;;;;15.50;13.00;;;;;;;;5122962;27;51552;-44
2022/11/26 11:02:48;;;;;;;;;12.25;11.75;;;;;;;;5123378;27;51067;-45
2022/11/26 11:05:34;;;;;;;;;16.75;15.50;;;;;;;;5123374;27;51176;-45
2022/11/26 11:08:30;;;;;;;;;17.75;17.75;;;;;;;;5122206;27;51273;-46
2022/11/26 11:11:24;;;;;;;;;43.00;35.25;;;;;;;;5122281;27;51251;-45
2022/11/26 11:14:26;;;;;;;;;82.00;79.25;;;;;;;;5121350;27;51373;-45
2022/11/26 11:17:23;;;;;;;;;70.75;60.00;;;;;;;;5122699;27;51140;-43
2022/11/26 11:20:16;;;;;;;;;63.25;49.00;;;;;;;;5116959;27;51141;-44
2022/11/26 11:23:04;;;;;;;;;41.00;29.00;;;;;;;;5121839;27;51174;-47
2022/11/26 11:26:05;;;;;;;;;24.50;23.75;;;;;;;;5122281;27;51101;-44
2022/11/26 11:28:51;;;;;;;;;29.25;26.75;;;;;;;;5122772;27;51248;-45
2022/11/26 11:31:44;;;;;;;;;31.75;23.50;;;;;;;;5122907;27;51107;-43
2022/11/26 11:34:31;;;;;;;;;24.00;19.00;;;;;;;;5122424;27;51126;-45
2022/11/26 11:37:19;;;;;;;;;24.00;20.50;;;;;;;;5123123;27;51389;-44
2022/11/26 11:40:09;;;;;;;;;23.25;20.00;;;;;;;;5106771;27;51541;-43
2022/11/26 11:43:03;;;;;;;;;16.50;15.00;;;;;;;;5122691;27;51112;-45
2022/11/26 11:45:53;;;;;;;;;17.25;16.75;;;;;;;;5122111;27;51036;-46
2022/11/26 11:48:52;;;;;;;;;20.50;18.50;;;;;;;;5122544;27;51332;-43
2022/11/26 11:51:43;;;;;;;;;22.00;18.50;;;;;;;;5122319;27;50996;-46
2022/11/26 11:54:44;;;;;;;;;21.75;16.00;;;;;;;;5122651;27;51078;-43
2022/11/26 11:57:44;;;;;;;;;16.75;16.25;;;;;;;;5122835;27;51060;-42
2022/11/26 12:00:47;;;;;;;;;22.00;17.00;;;;;;;;5121997;27;51053;-42
2022/11/26 12:03:32;;;;;;;;;18.75;16.75;;;;;;;;5122880;27;51058;-46
2022/11/26 12:06:22;;;;;;;;;16.50;13.75;;;;;;;;5121712;27;51424;-43
2022/11/26 12:09:13;;;;;;;;;20.50;17.50;;;;;;;;5121666;27;51049;-42
2022/11/26 12:12:00;;;;;;;;;16.25;14.75;;;;;;;;5122235;27;51083;-46
2022/11/26 12:14:46;;;;;;;;;18.50;16.50;;;;;;;;5121200;27;51125;-44
2022/11/26 12:17:49;;;;;;;;;23.75;22.00;;;;;;;;5122284;27;51551;-42
2022/11/26 12:20:38;;;;;;;;;20.00;14.50;;;;;;;;5122030;27;51149;-43
2022/11/26 12:23:25;;;;;;;;;13.75;12.25;;;;;;;;5122506;27;51393;-47
2022/11/26 12:26:10;;;;;;;;;16.25;15.75;;;;;;;;5121903;27;51135;-45
2022/11/26 12:29:01;;;;;;;;;22.75;18.50;;;;;;;;5122411;27;51148;-48
2022/11/26 12:31:57;;;;;;;;;16.25;16.00;;;;;;;;5121936;27;51576;-46
2022/11/26 12:34:48;;;;;;;;;19.50;15.50;;;;;;;;5122273;27;51088;-46
2022/11/26 12:37:36;;;;;;;;;19.00;15.25;;;;;;;;5122027;27;51107;-42
2022/11/26 12:40:23;;;;;;;;;16.00;12.75;;;;;;;;5105996;27;51197;-46
2022/11/26 12:43:25;;;;;;;;;22.00;18.00;;;;;;;;5121612;27;51211;-44
2022/11/26 12:46:24;;;;;;;;;17.25;16.00;;;;;;;;5121621;27;51157;-46
2022/11/26 12:49:14;;;;;;;;;20.75;15.75;;;;;;;;5121709;27;51175;-44
2022/11/26 12:52:19;;;;;;;;;21.25;17.75;;;;;;;;5121451;27;51144;-44
2022/11/26 12:55:13;;;;;;;;;15.75;15.50;;;;;;;;5121891;27;51123;-45
2022/11/26 12:58:01;;;;;;;;;15.00;15.00;;;;;;;;5121712;27;51505;-44
2022/11/26 13:00:48;;;;;;;;;17.25;15.25;;;;;;;;5120833;27;51066;-41
2022/11/26 13:03:33;;;;;;;;;14.00;12.25;;;;;;;;5121183;27;51083;-43
2022/11/26 13:06:25;;;;;;;;;23.75;16.25;;;;;;;;5113053;27;51301;-43
2022/11/26 13:09:28;;;;;;;;;18.50;16.00;;;;;;;;5101188;27;51095;-44
2022/11/26 13:12:17;;;;;;;;;16.75;14.50;;;;;;;;5100799;27;51224;-44
2022/11/26 13:15:12;;;;;;;;;13.75;11.00;;;;;;;;5100962;27;51131;-46
2022/11/26 13:17:59;;;;;;;;;16.50;14.00;;;;;;;;5100519;27;51012;-43
2022/11/26 13:21:12;;;;;;;;;17.50;16.25;;;;;;;;5100534;27;51152;-45
2022/11/26 13:24:05;;;;;;;;;16.25;12.25;;;;;;;;5100485;27;51489;-42
2022/11/26 13:27:08;;;;;;;;;20.00;16.50;;;;;;;;5105246;27;51628;-45
2022/11/26 13:30:12;;;;;;;;;21.75;14.75;;;;;;;;5099864;27;51114;-43
2022/11/26 13:33:01;;;;;;;;;14.50;12.00;;;;;;;;5120106;27;51068;-43
2022/11/26 13:36:04;;;;;;;;;16.50;14.75;;;;;;;;5120197;27;51104;-45
2022/11/26 13:38:49;;;;;;;;;23.25;20.00;;;;;;;;5120514;27;51074;-45
2022/11/26 13:41:33;;;;;;;;;22.00;19.00;;;;;;;;5121054;27;51487;-44
2022/11/26 13:44:36;;;;;;;;;18.50;18.50;;;;;;;;5120156;27;51180;-42
2022/11/26 13:47:31;;;;;;;;;21.25;18.25;;;;;;;;5120781;27;51166;-45
2022/11/26 13:50:19;;;;;;;;;19.00;15.75;;;;;;;;5120666;27;51150;-45
2022/11/26 13:53:13;;;;;;;;;13.50;11.50;;;;;;;;5120757;27;51350;-46
2022/11/26 13:56:02;;;;;;;;;18.00;15.00;;;;;;;;5120432;27;51103;-45
2022/11/26 13:58:50;;;;;;;;;20.00;18.00;;;;;;;;5120614;27;51187;-46
2022/11/26 14:01:38;;;;;;;;;17.25;14.00;;;;;;;;5120492;27;51554;-45
2022/11/26 14:04:23;;;;;;;;;15.50;15.50;;;;;;;;5120651;27;51050;-45
2022/11/26 14:07:07;;;;;;;;;21.50;18.75;;;;;;;;5120066;27;51583;-47
2022/11/26 14:09:53;;;;;;;;;19.25;16.50;;;;;;;;5120478;27;51039;-46
2022/11/26 14:12:56;;;;;;;;;14.25;13.75;;;;;;;;5123694;27;50982;-46
2022/11/26 14:15:40;;;;;;;;;18.25;15.50;;;;;;;;5123943;27;51539;-43
2022/11/26 14:18:43;;;;;;;;;17.25;12.00;;;;;;;;5124416;27;51133;-44
2022/11/26 14:21:28;;;;;;;;;15.75;13.75;;;;;;;;5124020;27;51127;-47
2022/11/26 14:24:32;;;;;;;;;21.75;17.25;;;;;;;;5125043;27;51115;-44
2022/11/26 14:27:22;;;;;;;;;18.00;14.25;;;;;;;;5123510;27;51409;-45
2022/11/26 14:30:06;;;;;;;;;16.50;12.50;;;;;;;;5124068;27;51137;-44
2022/11/26 14:32:54;;;;;;;;;19.00;13.50;;;;;;;;5123870;27;51178;-42
2022/11/26 14:35:39;;;;;;;;;17.25;15.75;;;;;;;;5123963;27;51179;-45
2022/11/26 14:38:26;;;;;;;;;15.00;14.50;;;;;;;;5124265;27;51077;-46
2022/11/26 14:41:10;;;;;;;;;16.00;14.50;;;;;;;;5123380;27;51089;-44
2022/11/26 14:44:04;;;;;;;;;18.00;14.75;;;;;;;;5124184;27;51067;-45
2022/11/26 14:46:50;;;;;;;;;15.25;14.00;;;;;;;;5123247;27;51023;-46
2022/11/26 14:49:36;;;;;;;;;20.00;17.25;;;;;;;;5124503;27;51131;-43
2022/11/26 14:52:29;;;;;;;;;19.00;15.75;;;;;;;;5110439;27;51528;-45
2022/11/26 14:55:22;;;;;;;;;14.25;12.75;;;;;;;;5105537;27;51228;-43
2022/11/26 14:58:09;;;;;;;;;17.00;15.00;;;;;;;;5107524;27;51286;-47
2022/11/26 15:01:09;;;;;;;;;15.50;11.75;;;;;;;;5109488;27;51280;-44
2022/11/26 15:04:02;;;;;;;;;20.00;15.25;;;;;;;;5107188;27;51090;-44
2022/11/26 15:06:46;;;;;;;;;18.50;13.25;;;;;;;;5113669;27;51549;-44
2022/11/26 15:09:30;;;;;;;;;15.75;13.50;;;;;;;;5112319;27;51540;-47
2022/11/26 15:12:15;;;;;;;;;20.50;15.75;;;;;;;;5108200;27;51045;-47
2022/11/26 15:15:00;;;;;;;;;15.25;12.50;;;;;;;;5108448;27;51298;-47
2022/11/26 15:17:48;;;;;;;;;20.00;16.25;;;;;;;;5107646;27;51498;-44
2022/11/26 15:20:32;;;;;;;;;14.50;11.50;;;;;;;;5110185;27;51110;-46
2022/11/26 15:23:17;;;;;;;;;15.75;14.50;;;;;;;;5108304;27;51401;-44
2022/11/26 15:26:03;;;;;;;;;18.25;14.50;;;;;;;;5110206;27;51066;-45
2022/11/26 15:28:48;;;;;;;;;15.50;13.00;;;;;;;;5107847;27;51107;-45
2022/11/26 15:31:41;;;;;;;;;13.50;12.00;;;;;;;;5109878;27;51471;-44
2022/11/26 15:34:27;;;;;;;;;21.50;17.50;;;;;;;;5110488;27;51019;-42
2022/11/26 15:37:11;;;;;;;;;24.00;17.00;;;;;;;;5106308;27;51236;-44
2022/11/26 15:40:14;;;;;;;;;16.00;16.00;;;;;;;;5110672;27;51085;-45
2022/11/26 15:43:01;;;;;;;;;20.25;14.75;;;;;;;;5107436;27;51171;-46
2022/11/26 15:45:45;;;;;;;;;14.25;13.00;;;;;;;;5106565;27;51110;-43
2022/11/26 15:48:38;;;;;;;;;17.50;14.75;;;;;;;;5094314;27;51261;-45
2022/11/26 15:51:22;;;;;;;;;17.00;13.00;;;;;;;;5106314;27;51030;-45
2022/11/26 15:54:19;;;;;;;;;14.50;11.00;;;;;;;;5104717;27;51007;-47
2022/11/26 15:57:06;;;;;;;;;16.75;14.50;;;;;;;;5107367;27;51631;-45
2022/11/26 15:59:55;;;;;;;;;16.75;14.00;;;;;;;;5105748;27;51116;-44
2022/11/26 16:02:39;;;;;;;;;15.00;14.75;;;;;;;;5107861;27;51106;-44
2022/11/26 16:05:36;;;;;;;;;19.50;14.00;;;;;;;;5108215;27;51067;-44
2022/11/26 16:08:21;;;;;;;;;19.75;17.00;;;;;;;;5100585;27;51240;-47
2022/11/26 16:11:07;;;;;;;;;17.50;16.50;;;;;;;;5106856;27;51175;-43
2022/11/26 16:13:52;;;;;;;;;17.00;13.50;;;;;;;;5107256;27;51040;-44